createdAt,value
2022-12-02T00:00:20.315Z,29.17
2022-12-02T00:05:14.560Z,27.40
2022-12-02T00:07:56.184Z,29.13
2022-12-02T00:10:32.964Z,28.25
2022-12-02T00:13:20.666Z,32.38
2022-12-02T00:16:10.421Z,29.38
2022-12-02T00:18:37.242Z,27.90
2022-12-02T00:21:04.081Z,30.98
2022-12-02T00:23:30.794Z,28.63
2022-12-02T00:25:58.101Z,28.20
2022-12-02T00:28:24.862Z,29.38
2022-12-02T00:30:51.635Z,31.58
2022-12-02T00:33:19.340Z,29.58
2022-12-02T00:35:46.380Z,30.83
2022-12-02T00:38:13.255Z,31.60
2022-12-02T00:40:40.280Z,31.02
2022-12-02T00:43:26.149Z,29.63
2022-12-02T00:46:11.502Z,33.58
2022-12-02T00:48:38.841Z,32.10
2022-12-02T00:51:06.081Z,30.63
2022-12-02T00:53:33.009Z,29.60
2022-12-02T00:56:00.047Z,30.63
2022-12-02T00:58:26.773Z,30.40
2022-12-02T01:00:53.558Z,31.60
2022-12-02T01:03:20.337Z,31.23
2022-12-02T01:05:47.091Z,31.55
2022-12-02T01:08:13.927Z,29.58
2022-12-02T01:10:40.681Z,30.20
2022-12-02T01:13:07.393Z,30.63
2022-12-02T01:15:34.261Z,31.20
2022-12-02T01:18:00.999Z,31.13
2022-12-02T01:20:27.786Z,32.25
2022-12-02T01:22:54.812Z,29.85
2022-12-02T01:25:21.525Z,29.83
2022-12-02T01:27:48.233Z,31.98
2022-12-02T01:30:16.489Z,30.25
2022-12-02T01:32:43.250Z,29.75
2022-12-02T01:35:10.013Z,30.25
2022-12-02T01:37:37.276Z,31.33
2022-12-02T01:40:06.551Z,31.17
2022-12-02T01:42:34.037Z,30.58
2022-12-02T01:45:01.230Z,28.45
2022-12-02T01:47:28.558Z,29.45
2022-12-02T01:49:55.796Z,28.58
2022-12-02T01:52:23.099Z,31.95
2022-12-02T01:54:51.871Z,29.50
2022-12-02T01:57:25.773Z,31.13
2022-12-02T01:59:52.929Z,29.25
2022-12-02T02:02:35.651Z,29.95
2022-12-02T02:05:15.692Z,30.70
2022-12-02T02:07:45.149Z,31.13
2022-12-02T02:10:12.938Z,28.25
2022-12-02T02:12:40.069Z,30.35
2022-12-02T02:15:10.884Z,29.23
2022-12-02T02:17:38.486Z,31.20
2022-12-02T02:20:14.477Z,30.10
2022-12-02T02:22:54.650Z,30.13
2022-12-02T02:25:21.532Z,29.20
2022-12-02T02:27:57.392Z,28.67
2022-12-02T02:30:27.296Z,30.95
2022-12-02T02:32:55.261Z,31.00
2022-12-02T02:35:22.660Z,30.73
2022-12-02T02:37:52.304Z,30.33
2022-12-02T02:40:21.277Z,31.30
2022-12-02T02:42:52.503Z,30.30
2022-12-02T02:45:22.762Z,27.52
2022-12-02T02:47:50.748Z,29.08
2022-12-02T02:50:18.563Z,29.48
2022-12-02T02:52:46.027Z,29.77
2022-12-02T02:55:22.664Z,29.05
2022-12-02T02:57:50.728Z,28.33
2022-12-02T03:00:21.438Z,28.98
2022-12-02T03:02:55.572Z,27.50
2022-12-02T03:05:23.244Z,30.45
2022-12-02T03:07:51.621Z,29.13
2022-12-02T03:10:19.216Z,27.00
2022-12-02T03:12:47.117Z,27.70
2022-12-02T03:15:15.556Z,28.52
2022-12-02T03:17:42.364Z,26.15
2022-12-02T03:20:09.874Z,26.40
2022-12-02T03:22:36.701Z,26.70
2022-12-02T03:25:05.179Z,27.80
2022-12-02T03:27:32.553Z,29.65
2022-12-02T03:29:59.777Z,28.42
2022-12-02T03:32:26.994Z,27.38
2022-12-02T03:34:54.314Z,28.30
2022-12-02T03:37:23.526Z,25.83
2022-12-02T03:39:51.456Z,25.67
2022-12-02T03:42:18.790Z,24.83
2022-12-02T03:44:45.810Z,23.73
2022-12-02T03:47:13.152Z,24.70
2022-12-02T03:49:40.247Z,24.40
2022-12-02T03:52:07.115Z,25.17
2022-12-02T03:54:34.522Z,25.88
2022-12-02T03:57:04.308Z,24.00
2022-12-02T03:59:31.562Z,23.40
2022-12-02T04:01:58.657Z,22.10
2022-12-02T04:04:25.637Z,23.02
2022-12-02T04:06:52.385Z,22.27
2022-12-02T04:09:19.322Z,23.33
2022-12-02T04:11:46.080Z,21.23
2022-12-02T04:14:12.825Z,20.23
2022-12-02T04:16:39.601Z,20.98
2022-12-02T04:19:06.403Z,22.20
2022-12-02T04:21:33.174Z,22.70
2022-12-02T04:23:59.980Z,23.55
2022-12-02T04:26:26.780Z,22.23
2022-12-02T04:28:53.561Z,19.25
2022-12-02T04:31:20.469Z,21.17
2022-12-02T04:33:47.265Z,19.95
2022-12-02T04:36:14.085Z,21.00
2022-12-02T04:38:40.855Z,19.63
2022-12-02T04:41:07.613Z,19.60
2022-12-02T04:43:34.376Z,20.95
2022-12-02T04:46:01.188Z,22.80
2022-12-02T04:48:28.005Z,22.50
2022-12-02T04:50:54.871Z,20.20
2022-12-02T04:53:21.640Z,20.13
2022-12-02T04:55:48.471Z,22.00
2022-12-02T04:58:15.512Z,21.08
2022-12-02T05:00:42.631Z,20.33
2022-12-02T05:03:09.487Z,21.70
2022-12-02T05:05:36.300Z,19.63
2022-12-02T05:08:03.421Z,21.90
2022-12-02T05:10:30.336Z,21.67
2022-12-02T05:12:57.044Z,20.30
2022-12-02T05:15:23.985Z,17.63
2022-12-02T05:17:50.749Z,22.00
2022-12-02T05:20:18.288Z,21.60
2022-12-02T05:22:45.099Z,19.60
2022-12-02T05:25:12.287Z,20.10
2022-12-02T05:27:39.094Z,19.17
2022-12-02T05:30:07.529Z,19.92
2022-12-02T05:32:34.549Z,19.75
2022-12-02T05:35:01.400Z,19.50
2022-12-02T05:37:28.191Z,17.77
2022-12-02T05:39:55.063Z,18.35
2022-12-02T05:42:22.203Z,18.02
2022-12-02T05:44:49.382Z,18.70
2022-12-02T05:47:18.722Z,19.30
2022-12-02T05:49:46.960Z,16.85
2022-12-02T05:52:25.465Z,18.25
2022-12-02T05:54:55.818Z,17.33
2022-12-02T05:57:29.446Z,16.90
2022-12-02T06:00:16.377Z,18.42
2022-12-02T06:03:00.797Z,18.45
2022-12-02T06:05:34.090Z,16.05
2022-12-02T06:08:25.622Z,16.27
2022-12-02T06:11:03.073Z,17.92
2022-12-02T06:13:35.853Z,17.58
2022-12-02T06:16:12.176Z,18.92
2022-12-02T06:18:40.080Z,16.10
2022-12-02T06:21:15.892Z,16.55
2022-12-02T06:23:47.407Z,15.93
2022-12-02T06:26:16.997Z,16.23
2022-12-02T06:28:47.577Z,17.02
2022-12-02T06:31:31.562Z,15.82
2022-12-02T06:34:05.662Z,16.60
2022-12-02T06:39:09.152Z,16.98
2022-12-02T06:41:37.999Z,18.85
2022-12-02T06:44:42.286Z,18.13
2022-12-02T06:47:37.174Z,17.15
2022-12-02T06:50:07.348Z,19.42
2022-12-02T06:52:39.512Z,18.67
2022-12-02T06:55:34.637Z,18.38
2022-12-02T06:58:35.095Z,18.05
2022-12-02T07:01:08.022Z,19.70
2022-12-02T07:03:43.224Z,19.05
2022-12-02T07:06:25.048Z,17.98
2022-12-02T07:08:52.482Z,17.55
2022-12-02T07:11:46.053Z,17.73
2022-12-02T07:14:45.266Z,20.45
2022-12-02T07:17:40.179Z,20.63
2022-12-02T07:20:22.885Z,20.77
2022-12-02T07:22:57.549Z,20.00
2022-12-02T07:25:31.967Z,21.63
2022-12-02T07:27:59.407Z,21.08
2022-12-02T07:30:30.345Z,20.73
2022-12-02T07:32:57.856Z,19.10
2022-12-02T07:35:25.900Z,20.70
2022-12-02T07:37:53.216Z,20.50
2022-12-02T07:40:21.474Z,18.90
2022-12-02T07:42:48.445Z,21.13
2022-12-02T07:45:18.852Z,19.35
2022-12-02T07:47:46.305Z,19.60
2022-12-02T07:50:16.917Z,18.80
2022-12-02T07:52:43.636Z,24.02
2022-12-02T07:55:10.532Z,22.35
2022-12-02T07:57:39.103Z,21.60
2022-12-02T08:00:08.754Z,20.42
2022-12-02T08:02:35.616Z,19.10
2022-12-02T08:05:02.591Z,19.67
2022-12-02T08:07:29.437Z,19.58
2022-12-02T08:09:56.244Z,22.15
2022-12-02T08:12:23.007Z,20.52
2022-12-02T08:14:50.131Z,20.17
2022-12-02T08:17:17.089Z,21.33
2022-12-02T08:19:43.847Z,21.17
2022-12-02T08:22:10.598Z,18.65
2022-12-02T08:24:37.357Z,18.88
2022-12-02T08:27:05.234Z,21.60
2022-12-02T08:29:31.984Z,21.20
2022-12-02T08:31:58.733Z,20.52
2022-12-02T08:34:25.501Z,19.98
2022-12-02T08:36:52.242Z,20.75
2022-12-02T08:39:19.022Z,19.85
2022-12-02T08:41:45.797Z,19.63
2022-12-02T08:44:12.554Z,21.17
2022-12-02T08:46:39.623Z,19.92
2022-12-02T08:49:07.265Z,21.80
2022-12-02T08:51:35.238Z,22.13
2022-12-02T08:54:02.142Z,21.30
2022-12-02T08:56:29.816Z,21.88
2022-12-02T08:58:56.624Z,22.92
2022-12-02T09:01:23.539Z,23.17
2022-12-02T09:03:50.348Z,20.58
2022-12-02T09:06:17.095Z,21.05
2022-12-02T09:08:44.066Z,21.27
2022-12-02T09:11:11.092Z,20.38
2022-12-02T09:13:38.004Z,23.52
2022-12-02T09:16:05.531Z,22.05
2022-12-02T09:18:32.347Z,21.23
2022-12-02T09:20:59.093Z,21.35
2022-12-02T09:23:26.066Z,26.88
2022-12-02T09:25:52.850Z,19.08
2022-12-02T09:28:22.140Z,19.88
2022-12-02T09:30:48.996Z,22.20
2022-12-02T09:33:15.947Z,23.02
2022-12-02T09:35:42.906Z,23.33
2022-12-02T09:38:10.109Z,24.65
2022-12-02T09:40:37.172Z,23.40
2022-12-02T09:43:05.728Z,22.38
2022-12-02T09:45:32.762Z,19.60
2022-12-02T09:47:59.803Z,21.63
2022-12-02T09:50:27.124Z,22.17
2022-12-02T09:53:04.186Z,24.25
2022-12-02T09:55:31.653Z,19.45
2022-12-02T09:58:20.366Z,21.73
2022-12-02T10:00:50.711Z,21.33
2022-12-02T10:03:23.686Z,26.15
2022-12-02T10:05:50.909Z,24.20
2022-12-02T10:08:27.877Z,21.92
2022-12-02T10:10:56.863Z,21.73
2022-12-02T10:13:27.383Z,22.30
2022-12-02T10:15:54.879Z,22.52
2022-12-02T10:18:29.896Z,27.73
2022-12-02T10:20:56.746Z,24.83
2022-12-02T10:23:28.856Z,24.48
2022-12-02T10:26:07.619Z,27.15
2022-12-02T10:28:37.673Z,26.83
2022-12-02T10:31:22.754Z,23.90
2022-12-02T10:33:56.491Z,24.17
2022-12-02T10:36:39.229Z,27.05
2022-12-02T10:39:23.638Z,30.77
2022-12-02T10:42:17.806Z,27.48
2022-12-02T10:44:46.405Z,24.55
2022-12-02T10:47:26.169Z,25.63
2022-12-02T10:50:00.219Z,27.55
2022-12-02T10:52:35.237Z,25.77
2022-12-02T10:55:04.945Z,25.50
2022-12-02T10:57:34.716Z,25.63
2022-12-02T11:00:18.018Z,24.33
2022-12-02T11:03:00.332Z,26.47
2022-12-02T11:05:34.016Z,27.30
2022-12-02T11:08:05.089Z,26.98
2022-12-02T11:10:39.354Z,26.95
2022-12-02T11:13:18.140Z,32.55
2022-12-02T11:15:53.236Z,29.17
2022-12-02T11:18:23.186Z,27.90
2022-12-02T11:20:54.817Z,32.42
2022-12-02T11:23:32.398Z,34.22
2022-12-02T11:26:01.433Z,30.30
2022-12-02T11:28:28.416Z,30.08
2022-12-02T11:31:10.661Z,29.80
2022-12-02T11:33:44.253Z,33.85
2022-12-02T11:36:17.761Z,34.47
2022-12-02T11:39:07.706Z,31.98
2022-12-02T11:41:49.797Z,32.65
2022-12-02T11:44:29.240Z,32.67
2022-12-02T11:46:59.442Z,30.55
2022-12-02T11:49:32.881Z,32.15
2022-12-02T11:52:22.995Z,31.05
2022-12-02T11:55:19.829Z,33.22
2022-12-02T11:57:54.098Z,31.52
2022-12-02T12:00:34.045Z,31.27
2022-12-02T12:03:13.502Z,29.20
2022-12-02T12:06:02.886Z,33.67
2022-12-02T12:08:29.938Z,32.28
2022-12-02T12:11:27.637Z,33.28
2022-12-02T12:14:19.344Z,30.73
2022-12-02T12:16:49.280Z,34.08
2022-12-02T12:19:16.206Z,32.58
2022-12-02T12:21:50.261Z,31.52
2022-12-02T12:27:03.288Z,30.73
2022-12-02T12:29:35.748Z,32.75
2022-12-02T12:32:03.914Z,30.25
2022-12-02T12:34:31.594Z,34.22
2022-12-02T12:36:58.824Z,33.30
2022-12-02T12:39:25.572Z,31.30
2022-12-02T12:42:01.053Z,31.52
2022-12-02T12:44:31.913Z,29.70
2022-12-02T12:47:02.552Z,34.17
2022-12-02T12:49:29.890Z,35.80
2022-12-02T12:51:56.687Z,39.08
2022-12-02T12:54:23.468Z,34.85
2022-12-02T12:56:50.221Z,32.17
2022-12-02T12:59:17.061Z,33.28
2022-12-02T13:01:44.829Z,33.90
2022-12-02T13:04:12.300Z,34.65
2022-12-02T13:06:42.611Z,36.88
2022-12-02T13:09:11.958Z,34.17
2022-12-02T13:11:39.177Z,32.80
2022-12-02T13:14:06.176Z,29.88
2022-12-02T13:16:33.183Z,32.42
2022-12-02T13:19:00.195Z,31.85
2022-12-02T13:21:26.947Z,38.50
2022-12-02T13:23:53.746Z,31.13
2022-12-02T13:26:20.518Z,33.53
2022-12-02T13:28:47.358Z,32.70
2022-12-02T13:31:14.205Z,33.47
2022-12-02T13:33:41.074Z,36.60
2022-12-02T13:36:08.557Z,33.60
2022-12-02T13:38:35.325Z,34.55
2022-12-02T13:41:02.049Z,32.83
2022-12-02T13:43:28.803Z,32.63
2022-12-02T13:45:55.618Z,31.23
2022-12-02T13:48:22.453Z,37.28
2022-12-02T13:50:49.258Z,36.13
2022-12-02T13:53:16.057Z,36.05
2022-12-02T13:55:42.806Z,34.42
2022-12-02T13:58:09.636Z,36.17
2022-12-02T14:00:36.482Z,38.50
2022-12-02T14:03:03.328Z,35.60
2022-12-02T14:05:30.051Z,35.05
2022-12-02T14:07:56.850Z,31.30
2022-12-02T14:10:23.560Z,33.70
2022-12-02T14:12:50.291Z,29.60
2022-12-02T14:15:17.071Z,36.22
2022-12-02T14:17:43.785Z,35.55
2022-12-02T14:20:11.342Z,35.58
2022-12-02T14:22:38.117Z,37.05
2022-12-02T14:25:05.313Z,34.42
2022-12-02T14:27:32.034Z,36.95
2022-12-02T14:29:58.787Z,37.35
2022-12-02T14:32:25.939Z,37.05
2022-12-02T14:34:52.913Z,36.67
2022-12-02T14:37:19.848Z,37.53
2022-12-02T14:39:46.627Z,40.88
2022-12-02T14:42:13.402Z,39.20
2022-12-02T14:44:40.485Z,38.42
2022-12-02T14:47:07.274Z,37.97
2022-12-02T14:49:41.948Z,36.47
2022-12-02T14:52:09.432Z,37.17
2022-12-02T14:54:36.689Z,40.60
2022-12-02T14:57:04.209Z,37.13
2022-12-02T14:59:31.699Z,33.25
2022-12-02T15:01:58.854Z,34.88
2022-12-02T15:04:28.625Z,35.83
2022-12-02T15:06:55.975Z,38.78
2022-12-02T15:09:23.187Z,32.50
2022-12-02T15:11:52.178Z,33.17
2022-12-02T15:14:20.740Z,31.25
2022-12-02T15:16:47.524Z,32.63
2022-12-02T15:19:14.416Z,31.40
2022-12-02T15:21:41.842Z,32.28
2022-12-02T15:24:08.843Z,33.38
2022-12-02T15:26:35.682Z,32.60
2022-12-02T15:29:02.454Z,31.80
2022-12-02T15:31:29.301Z,31.48
2022-12-02T15:33:56.081Z,31.70
2022-12-02T15:36:22.821Z,30.92
2022-12-02T15:38:49.577Z,27.45
2022-12-02T15:41:16.297Z,27.42
2022-12-02T15:43:44.430Z,28.48
2022-12-02T15:46:14.041Z,29.33
2022-12-02T15:48:40.801Z,26.27
2022-12-02T15:51:07.586Z,32.33
2022-12-02T15:53:34.366Z,31.02
2022-12-02T15:56:01.092Z,32.53
2022-12-02T15:58:27.877Z,32.58
2022-12-02T16:00:54.632Z,30.98
2022-12-02T16:03:21.425Z,31.33
2022-12-02T16:05:48.166Z,27.48
2022-12-02T16:08:14.909Z,27.50
2022-12-02T16:10:41.820Z,27.42
2022-12-02T16:13:08.664Z,29.90
2022-12-02T16:15:35.392Z,29.02
2022-12-02T16:18:02.096Z,28.58
2022-12-02T16:20:29.692Z,26.73
2022-12-02T16:22:56.426Z,28.08
2022-12-02T16:25:24.575Z,29.80
2022-12-02T16:27:51.410Z,31.20
2022-12-02T16:30:18.272Z,30.35
2022-12-02T16:32:45.015Z,31.23
2022-12-02T16:35:11.974Z,33.03
2022-12-02T16:37:38.682Z,33.05
2022-12-02T16:40:06.429Z,33.00
2022-12-02T16:42:33.198Z,35.25
2022-12-02T16:45:00.033Z,34.50
2022-12-02T16:47:26.844Z,34.80
2022-12-02T16:49:53.587Z,38.13
2022-12-02T16:52:20.663Z,34.90
2022-12-02T16:54:47.438Z,32.10
2022-12-02T16:57:14.194Z,32.83
2022-12-02T16:59:41.407Z,35.08
2022-12-02T17:02:10.558Z,37.00
2022-12-02T17:04:37.600Z,35.83
2022-12-02T17:07:04.441Z,34.60
2022-12-02T17:09:31.250Z,34.13
2022-12-02T17:11:59.582Z,36.78
2022-12-02T17:14:26.333Z,35.70
2022-12-02T17:16:53.093Z,36.90
2022-12-02T17:19:20.205Z,37.00
2022-12-02T17:21:46.914Z,40.58
2022-12-02T17:24:13.630Z,37.78
2022-12-02T17:26:40.541Z,37.75
2022-12-02T17:29:07.276Z,32.78
2022-12-02T17:31:34.044Z,40.47
2022-12-02T17:34:01.242Z,39.75
2022-12-02T17:36:28.462Z,35.05
2022-12-02T17:38:57.532Z,39.13
2022-12-02T17:41:26.476Z,37.90
2022-12-02T17:43:54.013Z,36.05
2022-12-02T17:46:20.821Z,42.78
2022-12-02T17:48:49.094Z,40.28
2022-12-02T17:51:17.270Z,39.35
2022-12-02T17:53:44.473Z,38.60
2022-12-02T17:56:11.954Z,42.45
2022-12-02T17:58:38.833Z,37.58
2022-12-02T18:01:11.773Z,40.10
2022-12-02T18:03:40.402Z,40.03
2022-12-02T18:06:08.277Z,38.95
2022-12-02T18:08:35.437Z,40.55
2022-12-02T18:11:02.654Z,41.00
2022-12-02T18:13:30.253Z,35.05
2022-12-02T18:15:56.989Z,38.88
2022-12-02T18:18:23.882Z,38.15
2022-12-02T18:20:50.598Z,43.22
2022-12-02T18:23:17.419Z,42.97
2022-12-02T18:25:44.834Z,40.97
2022-12-02T18:28:11.653Z,39.30
2022-12-02T18:30:38.424Z,45.10
2022-12-02T18:33:05.754Z,39.92
2022-12-02T18:35:32.704Z,41.50
2022-12-02T18:37:59.466Z,46.47
2022-12-02T18:40:26.279Z,40.67
2022-12-02T18:42:53.068Z,40.40
2022-12-02T18:45:19.766Z,41.72
2022-12-02T18:47:46.611Z,39.90
2022-12-02T18:50:14.403Z,45.45
2022-12-02T18:52:41.394Z,40.95
2022-12-02T18:55:10.228Z,42.28
2022-12-02T18:57:36.968Z,42.03
2022-12-02T19:00:07.355Z,46.33
2022-12-02T19:02:34.313Z,42.85
2022-12-02T19:05:01.351Z,43.83
2022-12-02T19:07:28.334Z,44.67
2022-12-02T19:09:55.174Z,42.42
2022-12-02T19:12:21.903Z,42.53
2022-12-02T19:14:48.689Z,47.90
2022-12-02T19:17:15.954Z,50.28
2022-12-02T19:19:43.493Z,47.10
2022-12-02T19:22:11.153Z,47.30
2022-12-02T19:24:38.312Z,45.42
2022-12-02T19:27:05.419Z,49.95
2022-12-02T19:29:32.217Z,45.28
2022-12-02T19:31:59.231Z,47.72
2022-12-02T19:34:26.288Z,53.15
2022-12-02T19:36:53.070Z,52.78
2022-12-02T19:39:19.920Z,51.38
2022-12-02T19:41:46.775Z,52.75
2022-12-02T19:44:13.505Z,51.53
2022-12-02T19:46:40.420Z,48.20
2022-12-02T19:49:07.403Z,50.65
2022-12-02T19:51:34.267Z,46.40
2022-12-02T19:54:01.033Z,47.65
2022-12-02T19:56:27.826Z,49.45
2022-12-02T19:58:54.613Z,47.83
2022-12-02T20:01:21.475Z,45.45
2022-12-02T20:03:48.348Z,46.72
2022-12-02T20:06:15.289Z,45.65
2022-12-02T20:08:42.072Z,48.35
2022-12-02T20:11:08.920Z,43.83
2022-12-02T20:13:35.655Z,47.50
2022-12-02T20:16:02.686Z,48.65
2022-12-02T20:18:29.464Z,50.03
2022-12-02T20:20:56.176Z,48.95
2022-12-02T20:23:23.351Z,50.53
2022-12-02T20:25:50.175Z,46.88
2022-12-02T20:28:16.906Z,44.28
2022-12-02T20:30:43.701Z,45.05
2022-12-02T20:33:10.981Z,46.95
2022-12-02T20:35:37.701Z,48.30
2022-12-02T20:38:04.542Z,51.65
2022-12-02T20:40:31.309Z,46.35
2022-12-02T20:42:58.030Z,51.47
2022-12-02T20:45:25.100Z,46.90
2022-12-02T20:47:51.920Z,45.47
2022-12-02T20:50:18.710Z,47.67
2022-12-02T20:52:52.843Z,47.25
2022-12-02T20:55:20.505Z,44.05
2022-12-02T20:57:47.929Z,45.17
2022-12-02T21:00:16.099Z,51.92
2022-12-02T21:02:43.288Z,44.45
2022-12-02T21:05:10.861Z,45.75
2022-12-02T21:07:38.457Z,46.63
2022-12-02T21:10:06.239Z,49.95
2022-12-02T21:12:33.298Z,48.15
2022-12-02T21:15:00.172Z,47.00
2022-12-02T21:17:27.272Z,48.47
2022-12-02T21:19:54.013Z,42.47
2022-12-02T21:22:20.754Z,52.58
2022-12-02T21:24:47.509Z,50.47
2022-12-02T21:27:15.118Z,47.45
2022-12-02T21:29:42.108Z,48.38
2022-12-02T21:32:08.829Z,47.90
2022-12-02T21:34:35.599Z,48.63
2022-12-02T21:37:02.461Z,50.70
2022-12-02T21:39:29.306Z,47.53
2022-12-02T21:41:56.261Z,46.75
2022-12-02T21:44:23.029Z,48.45
2022-12-02T21:46:49.912Z,49.85
2022-12-02T21:49:17.759Z,48.33
2022-12-02T21:51:44.629Z,46.10
2022-12-02T21:54:11.399Z,48.50
2022-12-02T21:56:38.191Z,52.65
2022-12-02T21:59:05.135Z,48.80
2022-12-02T22:01:38.201Z,50.17
2022-12-02T22:04:06.728Z,49.77
2022-12-02T22:06:33.933Z,48.55
2022-12-02T22:09:00.748Z,46.05
2022-12-02T22:11:28.085Z,44.17
2022-12-02T22:13:54.858Z,47.85
2022-12-02T22:16:21.646Z,46.10
2022-12-02T22:18:49.186Z,44.15
2022-12-02T22:21:15.941Z,45.90
2022-12-02T22:23:42.714Z,46.95
2022-12-02T22:26:12.270Z,41.80
2022-12-02T22:28:41.562Z,46.65
2022-12-02T22:31:08.316Z,45.08
2022-12-02T22:33:35.065Z,47.08
2022-12-02T22:36:01.918Z,45.35
2022-12-02T22:38:28.734Z,46.03
2022-12-02T22:40:55.447Z,46.28
2022-12-02T22:43:22.163Z,44.95
2022-12-02T22:45:48.950Z,45.38
2022-12-02T22:48:15.697Z,43.95
2022-12-02T22:50:42.511Z,47.33
2022-12-02T22:53:09.820Z,44.78
2022-12-02T22:55:36.898Z,44.00
2022-12-02T22:58:03.671Z,45.95
2022-12-02T23:00:30.503Z,39.72
2022-12-02T23:02:57.303Z,44.22
2022-12-02T23:05:24.110Z,43.13
2022-12-02T23:07:50.942Z,40.05
2022-12-02T23:10:17.770Z,43.92
2022-12-02T23:12:44.490Z,41.55
2022-12-02T23:17:58.446Z,40.95
2022-12-02T23:20:25.238Z,41.85
2022-12-02T23:22:52.063Z,43.85
2022-12-02T23:25:18.933Z,43.50
2022-12-02T23:27:45.749Z,40.67
2022-12-02T23:30:13.671Z,45.88
2022-12-02T23:32:40.406Z,43.20
2022-12-02T23:35:07.646Z,42.72
2022-12-02T23:37:34.489Z,42.95
2022-12-02T23:40:01.205Z,43.05
2022-12-02T23:42:27.988Z,40.63
2022-12-02T23:44:55.020Z,44.20
2022-12-02T23:47:21.900Z,43.00
2022-12-02T23:49:48.648Z,39.17
2022-12-02T23:52:15.367Z,37.50
2022-12-02T23:54:42.102Z,40.92
2022-12-02T23:57:09.373Z,40.20
2022-12-02T23:59:36.092Z,41.40
